»·PEaware :: SWA835 KSFO-KLAX

SWA835 :: KSFO-KLAX

FLIGHT INFORMATION

Flight Status: Arrived
Operator:
Southwest Airlines
More flights by this operator :: More flights under this callsign
Pilot: Pratham R. (19019)
Aircraft: BOEING 737-800
(B738)
More flights by this aircraft type
Origin: KSFO San Francisco Intl
United States
Destination: KLAX Los Angeles Intl
United States
More flights between these airports :: More routes between these airports
Route: +SSTIK3 EBAYE AVE SADDE8
File this flight plan on PilotEdge
Remarks: PBN / A1B1C1D1S1S2 DOF / 180528 REG / N8305E EET / KZAK0020 KZLA0025 OPR / SWA PER / C RMK / TCAS SIMBRIEF
Altitude:
(Current/Filed)
37,000ft
Speed:
(Current/Filed)
447kts
Departed: 08-Jun-18 10:36 AM
Arrived: 08-Jun-18 11:35 AM
Distance/Time
Traveled:
293nm/0:59
Distance/Time
To Go:
Arrived

Flight Plot

Page will automatically refresh every two minutes.

Flight plan parsing failed; only flown route is shown


Map Options




Map Legend


Flown Route
Filed Route
Departure Airport
Arrival Airport
Navaid (VOR, NDB)
Fix

Horizontal Profiles

Position Reports

Time Latitude Longitude Heading Altitude Ground
Speed
08-Jun-18 10:21 37.612235 -122.384141 30 31ft 0kts
08-Jun-18 10:22 37.612235 -122.384141 30 31ft 0kts
08-Jun-18 10:23 37.612235 -122.384141 30 31ft 0kts
08-Jun-18 10:24 37.612235 -122.384141 30 31ft 0kts
08-Jun-18 10:25 37.612234 -122.384141 30 31ft 0kts
08-Jun-18 10:26 37.611972 -122.384323 29 31ft 2kts
08-Jun-18 10:27 37.611471 -122.384671 29 31ft 2kts
08-Jun-18 10:28 37.611309 -122.384852 76 31ft 0kts
08-Jun-18 10:29 37.611309 -122.384852 75 31ft 0kts
08-Jun-18 10:30 37.611310 -122.384851 75 31ft 0kts
08-Jun-18 10:31 37.611310 -122.384851 75 31ft 0kts
08-Jun-18 10:32 37.611315 -122.384824 75 31ft 1kts
08-Jun-18 10:33 37.611186 -122.383534 117 31ft 0kts
08-Jun-18 10:34 37.609044 -122.383717 210 31ft 6kts
08-Jun-18 10:35 37.608432 -122.382591 35 29ft 6kts
08-Jun-18 10:36 37.614238 -122.378763 28 28ft 118kts
08-Jun-18 10:37 37.654721 -122.354938 1 1864ft 213kts
08-Jun-18 10:38 37.696636 -122.397616 264 4358ft 251kts
08-Jun-18 10:39 37.645054 -122.444428 193 7465ft 275kts
08-Jun-18 10:40 37.571955 -122.459588 190 9995ft 291kts
08-Jun-18 10:41 37.491213 -122.464755 164 10340ft 326kts
08-Jun-18 10:42 37.417804 -122.382994 134 12469ft 377kts
08-Jun-18 10:43 37.345416 -122.284100 134 15691ft 397kts
08-Jun-18 10:44 37.269136 -122.180308 135 18875ft 416kts
08-Jun-18 10:45 37.192041 -122.075760 135 21697ft 434kts
08-Jun-18 10:46 37.108841 -121.963323 135 24367ft 450kts
08-Jun-18 10:47 37.021928 -121.846350 135 26658ft 470kts
08-Jun-18 10:48 36.931629 -121.725231 135 28979ft 482kts
08-Jun-18 10:49 36.843931 -121.607916 135 31732ft 475kts
08-Jun-18 10:50 36.754858 -121.489198 136 34292ft 466kts
08-Jun-18 10:51 36.666954 -121.372519 136 36394ft 461kts
08-Jun-18 10:52 36.581651 -121.259682 137 37126ft 457kts
08-Jun-18 10:53 36.494292 -121.144572 136 37133ft 459kts
08-Jun-18 10:54 36.407740 -121.028973 133 37130ft 461kts
08-Jun-18 10:55 36.324143 -120.908787 132 37119ft 460kts
08-Jun-18 10:56 36.240644 -120.789053 132 37119ft 461kts
08-Jun-18 10:57 36.171281 -120.689952 132 37119ft 461kts
08-Jun-18 10:58 36.087648 -120.570881 132 37120ft 461kts
08-Jun-18 10:59 36.003788 -120.451933 132 37120ft 461kts
08-Jun-18 11:00 35.922881 -120.337590 133 37113ft 460kts
08-Jun-18 11:01 35.838394 -120.221571 136 37118ft 460kts
08-Jun-18 11:02 35.750635 -120.109760 136 37114ft 459kts
08-Jun-18 11:03 35.662457 -119.997874 136 37119ft 460kts
08-Jun-18 11:04 35.561966 -119.903251 147 37111ft 456kts
08-Jun-18 11:05 35.459315 -119.815009 147 37103ft 456kts
08-Jun-18 11:06 35.355870 -119.726207 147 37100ft 456kts
08-Jun-18 11:07 35.257532 -119.641975 147 37089ft 456kts
08-Jun-18 11:08 35.153655 -119.553227 147 37089ft 456kts
08-Jun-18 11:09 35.049944 -119.464873 147 37093ft 456kts
08-Jun-18 11:10 34.946305 -119.376858 146 37078ft 453kts
08-Jun-18 11:11 34.863336 -119.306579 146 36991ft 453kts
08-Jun-18 11:12 34.764457 -119.223009 146 35441ft 458kts
08-Jun-18 11:13 34.662602 -119.137154 146 32463ft 449kts
08-Jun-18 11:14 34.558838 -119.050003 146 29532ft 463kts
08-Jun-18 11:15 34.454491 -118.962624 146 26347ft 472kts
08-Jun-18 11:16 34.345319 -118.876918 159 24035ft 474kts
08-Jun-18 11:17 34.221582 -118.830321 164 22497ft 453kts
08-Jun-18 11:18 34.108841 -118.789201 163 18818ft 431kts
08-Jun-18 11:19 34.035077 -118.692815 101 14938ft 413kts
08-Jun-18 11:20 34.021914 -118.568406 96 12822ft 339kts
08-Jun-18 11:21 34.012513 -118.470978 96 10754ft 311kts
08-Jun-18 11:22 34.019875 -118.374205 81 8456ft 297kts
08-Jun-18 11:23 34.030652 -118.293626 81 7567ft 254kts
08-Jun-18 11:24 34.041033 -118.216351 80 6077ft 249kts
08-Jun-18 11:25 34.050586 -118.135734 81 4343ft 252kts
08-Jun-18 11:26 34.059711 -118.056221 92 3026ft 236kts
08-Jun-18 11:27 34.017279 -118.016809 195 3026ft 222kts
08-Jun-18 11:28 33.987956 -118.071682 259 3008ft 221kts
08-Jun-18 11:29 33.979094 -118.142023 262 3008ft 221kts
08-Jun-18 11:30 33.971806 -118.211189 263 2996ft 210kts
08-Jun-18 11:31 33.965379 -118.273988 263 2241ft 187kts
08-Jun-18 11:32 33.959908 -118.326334 262 1411ft 149kts
08-Jun-18 11:33 33.955360 -118.370614 262 662ft 144kts
08-Jun-18 11:34 33.950760 -118.415191 263 122ft 91kts
08-Jun-18 11:35 33.947355 -118.427711 198 109ft 25kts
08-Jun-18 11:36 33.946427 -118.426339 83 110ft 2kts
08-Jun-18 11:37 33.946686 -118.423759 83 115ft 19kts
08-Jun-18 11:38 33.947478 -118.415811 82 119ft 33kts
08-Jun-18 11:39 33.947173 -118.411836 77 122ft 18kts
08-Jun-18 11:40 33.946397 -118.409006 144 122ft 5kts
08-Jun-18 11:41 33.946337 -118.408295 90 122ft 0kts
08-Jun-18 11:42 33.946337 -118.408295 90 122ft 0kts
08-Jun-18 11:43 33.946337 -118.408295 90 122ft 0kts
08-Jun-18 11:44 33.946337 -118.408295 90 122ft 0kts
08-Jun-18 11:45 33.946337 -118.408295 90 122ft 0kts
08-Jun-18 11:46 33.946337 -118.408295 90 122ft 0kts
08-Jun-18 11:47 33.946337 -118.408295 90 122ft 0kts
08-Jun-18 11:48 33.946337 -118.408295 90 122ft 0kts
08-Jun-18 11:49 33.946337 -118.408295 90 122ft 0kts

Navigation Log

Ident Type
Flight plan parsing failed, navigation log unavailable